sensor_id;sensor_type;location;lat;lon;timestamp;P1;durP1;ratioP1;P2;durP2;ratioP2
79566;SDS011;69030;48.126;7.816;2024-03-06T00:00:45;2.55;;;1.35;;
79566;SDS011;69030;48.126;7.816;2024-03-06T00:03:12;3.03;;;1.92;;
79566;SDS011;69030;48.126;7.816;2024-03-06T00:05:38;4.00;;;1.90;;
79566;SDS011;69030;48.126;7.816;2024-03-06T00:08:03;4.25;;;2.30;;
79566;SDS011;69030;48.126;7.816;2024-03-06T00:10:30;3.33;;;2.33;;
79566;SDS011;69030;48.126;7.816;2024-03-06T00:12:55;4.70;;;1.25;;
79566;SDS011;69030;48.126;7.816;2024-03-06T00:15:21;5.78;;;1.73;;
79566;SDS011;69030;48.126;7.816;2024-03-06T00:17:46;3.28;;;1.92;;
79566;SDS011;69030;48.126;7.816;2024-03-06T00:20:12;4.13;;;2.70;;
79566;SDS011;69030;48.126;7.816;2024-03-06T00:22:37;3.42;;;2.08;;
79566;SDS011;69030;48.126;7.816;2024-03-06T00:25:03;5.45;;;2.42;;
79566;SDS011;69030;48.126;7.816;2024-03-06T00:27:28;3.08;;;2.70;;
79566;SDS011;69030;48.126;7.816;2024-03-06T00:29:54;3.13;;;2.53;;
79566;SDS011;69030;48.126;7.816;2024-03-06T00:32:19;3.65;;;1.88;;
79566;SDS011;69030;48.126;7.816;2024-03-06T00:34:45;4.03;;;3.08;;
79566;SDS011;69030;48.126;7.816;2024-03-06T00:37:10;4.28;;;2.53;;
79566;SDS011;69030;48.126;7.816;2024-03-06T00:39:37;4.15;;;1.67;;
79566;SDS011;69030;48.126;7.816;2024-03-06T00:42:03;2.60;;;2.40;;
79566;SDS011;69030;48.126;7.816;2024-03-06T00:44:28;3.78;;;1.33;;
79566;SDS011;69030;48.126;7.816;2024-03-06T00:46:54;2.33;;;1.05;;
79566;SDS011;69030;48.126;7.816;2024-03-06T00:49:19;3.72;;;2.03;;
79566;SDS011;69030;48.126;7.816;2024-03-06T00:51:45;2.80;;;2.13;;
79566;SDS011;69030;48.126;7.816;2024-03-06T00:54:10;2.67;;;2.38;;
79566;SDS011;69030;48.126;7.816;2024-03-06T00:56:39;3.03;;;1.23;;
79566;SDS011;69030;48.126;7.816;2024-03-06T00:59:04;4.72;;;1.33;;
79566;SDS011;69030;48.126;7.816;2024-03-06T01:01:30;2.80;;;2.50;;
79566;SDS011;69030;48.126;7.816;2024-03-06T01:03:55;2.80;;;1.17;;
79566;SDS011;69030;48.126;7.816;2024-03-06T01:06:21;2.95;;;1.27;;
79566;SDS011;69030;48.126;7.816;2024-03-06T01:08:46;4.28;;;2.58;;
79566;SDS011;69030;48.126;7.816;2024-03-06T01:11:12;3.90;;;3.22;;
79566;SDS011;69030;48.126;7.816;2024-03-06T01:13:39;3.40;;;1.73;;
79566;SDS011;69030;48.126;7.816;2024-03-06T01:16:06;4.10;;;3.78;;
79566;SDS011;69030;48.126;7.816;2024-03-06T01:18:31;2.67;;;2.17;;
79566;SDS011;69030;48.126;7.816;2024-03-06T01:20:57;4.88;;;1.23;;
79566;SDS011;69030;48.126;7.816;2024-03-06T01:23:22;1.45;;;1.25;;
79566;SDS011;69030;48.126;7.816;2024-03-06T01:25:47;5.15;;;1.95;;
79566;SDS011;69030;48.126;7.816;2024-03-06T01:28:13;4.05;;;2.92;;
79566;SDS011;69030;48.126;7.816;2024-03-06T01:30:39;2.97;;;1.35;;
79566;SDS011;69030;48.126;7.816;2024-03-06T01:33:05;3.78;;;2.35;;
79566;SDS011;69030;48.126;7.816;2024-03-06T01:35:31;3.25;;;1.75;;
79566;SDS011;69030;48.126;7.816;2024-03-06T01:37:56;3.10;;;1.30;;
79566;SDS011;69030;48.126;7.816;2024-03-06T01:40:22;6.05;;;3.00;;
79566;SDS011;69030;48.126;7.816;2024-03-06T01:42:47;5.70;;;3.03;;
79566;SDS011;69030;48.126;7.816;2024-03-06T01:45:16;4.38;;;4.07;;
79566;SDS011;69030;48.126;7.816;2024-03-06T01:47:42;3.95;;;2.63;;
79566;SDS011;69030;48.126;7.816;2024-03-06T01:50:07;2.78;;;1.17;;
79566;SDS011;69030;48.126;7.816;2024-03-06T01:52:35;4.05;;;1.67;;
79566;SDS011;69030;48.126;7.816;2024-03-06T01:55:01;3.83;;;2.50;;
79566;SDS011;69030;48.126;7.816;2024-03-06T01:57:27;4.28;;;2.80;;
79566;SDS011;69030;48.126;7.816;2024-03-06T01:59:53;4.20;;;3.20;;
79566;SDS011;69030;48.126;7.816;2024-03-06T02:02:19;4.45;;;1.23;;
79566;SDS011;69030;48.126;7.816;2024-03-06T02:04:45;3.72;;;1.55;;
79566;SDS011;69030;48.126;7.816;2024-03-06T02:07:11;2.15;;;1.25;;
79566;SDS011;69030;48.126;7.816;2024-03-06T02:09:38;4.22;;;2.97;;
79566;SDS011;69030;48.126;7.816;2024-03-06T02:12:04;4.75;;;2.60;;
79566;SDS011;69030;48.126;7.816;2024-03-06T02:14:30;3.78;;;2.85;;
79566;SDS011;69030;48.126;7.816;2024-03-06T02:16:56;4.18;;;1.65;;
79566;SDS011;69030;48.126;7.816;2024-03-06T02:19:21;4.93;;;3.17;;
79566;SDS011;69030;48.126;7.816;2024-03-06T02:21:48;3.00;;;2.30;;
79566;SDS011;69030;48.126;7.816;2024-03-06T02:24:13;3.47;;;3.10;;
79566;SDS011;69030;48.126;7.816;2024-03-06T02:26:39;5.03;;;3.00;;
79566;SDS011;69030;48.126;7.816;2024-03-06T02:29:05;3.95;;;1.85;;
79566;SDS011;69030;48.126;7.816;2024-03-06T02:31:31;5.30;;;2.97;;
79566;SDS011;69030;48.126;7.816;2024-03-06T02:33:58;3.25;;;2.95;;
79566;SDS011;69030;48.126;7.816;2024-03-06T02:36:23;3.97;;;3.67;;
79566;SDS011;69030;48.126;7.816;2024-03-06T02:38:49;3.30;;;2.92;;
79566;SDS011;69030;48.126;7.816;2024-03-06T02:41:16;3.47;;;2.72;;
79566;SDS011;69030;48.126;7.816;2024-03-06T02:43:42;3.25;;;1.80;;
79566;SDS011;69030;48.126;7.816;2024-03-06T02:46:08;3.45;;;3.08;;
79566;SDS011;69030;48.126;7.816;2024-03-06T02:48:34;3.03;;;2.53;;
79566;SDS011;69030;48.126;7.816;2024-03-06T02:50:59;3.40;;;1.60;;
79566;SDS011;69030;48.126;7.816;2024-03-06T02:53:25;3.05;;;1.77;;
79566;SDS011;69030;48.126;7.816;2024-03-06T02:55:51;3.25;;;2.95;;
79566;SDS011;69030;48.126;7.816;2024-03-06T02:58:17;6.10;;;1.40;;
79566;SDS011;69030;48.126;7.816;2024-03-06T03:00:42;4.07;;;2.45;;
79566;SDS011;69030;48.126;7.816;2024-03-06T03:03:08;3.78;;;1.83;;
79566;SDS011;69030;48.126;7.816;2024-03-06T03:05:35;3.53;;;3.22;;
79566;SDS011;69030;48.126;7.816;2024-03-06T03:08:01;4.28;;;2.95;;
79566;SDS011;69030;48.126;7.816;2024-03-06T03:10:28;2.42;;;1.80;;
79566;SDS011;69030;48.126;7.816;2024-03-06T03:12:55;2.30;;;1.38;;
79566;SDS011;69030;48.126;7.816;2024-03-06T03:15:20;5.85;;;1.48;;
79566;SDS011;69030;48.126;7.816;2024-03-06T03:17:46;5.15;;;3.42;;
79566;SDS011;69030;48.126;7.816;2024-03-06T03:20:12;5.55;;;3.22;;
79566;SDS011;69030;48.126;7.816;2024-03-06T03:22:38;3.22;;;1.60;;
79566;SDS011;69030;48.126;7.816;2024-03-06T03:25:09;5.05;;;4.30;;
79566;SDS011;69030;48.126;7.816;2024-03-06T03:27:37;3.22;;;2.85;;
79566;SDS011;69030;48.126;7.816;2024-03-06T03:30:08;3.58;;;1.83;;
79566;SDS011;69030;48.126;7.816;2024-03-06T03:32:37;2.85;;;1.58;;
79566;SDS011;69030;48.126;7.816;2024-03-06T03:35:03;2.90;;;1.60;;
79566;SDS011;69030;48.126;7.816;2024-03-06T03:39:56;4.32;;;3.80;;
79566;SDS011;69030;48.126;7.816;2024-03-06T03:42:21;5.00;;;2.40;;
79566;SDS011;69030;48.126;7.816;2024-03-06T03:44:48;3.53;;;2.85;;
79566;SDS011;69030;48.126;7.816;2024-03-06T03:47:13;4.65;;;3.45;;
79566;SDS011;69030;48.126;7.816;2024-03-06T03:49:39;4.72;;;1.98;;
79566;SDS011;69030;48.126;7.816;2024-03-06T03:52:04;3.03;;;2.75;;
79566;SDS011;69030;48.126;7.816;2024-03-06T03:54:30;4.78;;;4.47;;
79566;SDS011;69030;48.126;7.816;2024-03-06T03:56:55;3.75;;;3.33;;
79566;SDS011;69030;48.126;7.816;2024-03-06T03:59:20;3.15;;;2.85;;
79566;SDS011;69030;48.126;7.816;2024-03-06T04:01:47;2.55;;;1.83;;
79566;SDS011;69030;48.126;7.816;2024-03-06T04:04:13;5.78;;;2.30;;
79566;SDS011;69030;48.126;7.816;2024-03-06T04:06:39;3.78;;;3.38;;
79566;SDS011;69030;48.126;7.816;2024-03-06T04:09:04;3.15;;;2.85;;
79566;SDS011;69030;48.126;7.816;2024-03-06T04:11:30;3.35;;;1.95;;
79566;SDS011;69030;48.126;7.816;2024-03-06T04:13:57;3.08;;;1.75;;
79566;SDS011;69030;48.126;7.816;2024-03-06T04:16:22;4.03;;;3.70;;
79566;SDS011;69030;48.126;7.816;2024-03-06T04:18:48;5.30;;;2.67;;
79566;SDS011;69030;48.126;7.816;2024-03-06T04:21:16;4.30;;;2.65;;
79566;SDS011;69030;48.126;7.816;2024-03-06T04:23:43;4.47;;;2.35;;
79566;SDS011;69030;48.126;7.816;2024-03-06T04:26:09;3.35;;;2.38;;
79566;SDS011;69030;48.126;7.816;2024-03-06T04:28:34;3.92;;;3.00;;
79566;SDS011;69030;48.126;7.816;2024-03-06T04:30:59;5.25;;;2.25;;
79566;SDS011;69030;48.126;7.816;2024-03-06T04:33:25;5.80;;;2.42;;
79566;SDS011;69030;48.126;7.816;2024-03-06T04:35:50;4.85;;;4.22;;
79566;SDS011;69030;48.126;7.816;2024-03-06T04:38:17;3.83;;;2.40;;
79566;SDS011;69030;48.126;7.816;2024-03-06T04:40:42;5.43;;;2.38;;
79566;SDS011;69030;48.126;7.816;2024-03-06T04:43:08;6.72;;;2.70;;
79566;SDS011;69030;48.126;7.816;2024-03-06T04:45:33;4.18;;;2.22;;
79566;SDS011;69030;48.126;7.816;2024-03-06T04:47:59;3.60;;;2.13;;
79566;SDS011;69030;48.126;7.816;2024-03-06T04:50:24;3.78;;;2.67;;
79566;SDS011;69030;48.126;7.816;2024-03-06T04:52:50;6.65;;;2.72;;
79566;SDS011;69030;48.126;7.816;2024-03-06T04:55:15;5.22;;;4.30;;
79566;SDS011;69030;48.126;7.816;2024-03-06T04:57:45;4.68;;;2.13;;
79566;SDS011;69030;48.126;7.816;2024-03-06T05:00:11;4.95;;;3.20;;
79566;SDS011;69030;48.126;7.816;2024-03-06T05:02:37;5.32;;;4.75;;
79566;SDS011;69030;48.126;7.816;2024-03-06T05:05:04;4.35;;;2.75;;
79566;SDS011;69030;48.126;7.816;2024-03-06T05:07:30;5.78;;;2.72;;
79566;SDS011;69030;48.126;7.816;2024-03-06T05:09:56;5.97;;;4.55;;
79566;SDS011;69030;48.126;7.816;2024-03-06T05:12:25;4.88;;;3.33;;
79566;SDS011;69030;48.126;7.816;2024-03-06T05:14:53;4.95;;;4.55;;
79566;SDS011;69030;48.126;7.816;2024-03-06T05:17:19;5.72;;;3.08;;
79566;SDS011;69030;48.126;7.816;2024-03-06T05:19:45;5.70;;;4.90;;
79566;SDS011;69030;48.126;7.816;2024-03-06T05:22:12;4.65;;;2.72;;
79566;SDS011;69030;48.126;7.816;2024-03-06T05:24:38;8.60;;;6.03;;
79566;SDS011;69030;48.126;7.816;2024-03-06T05:27:05;4.45;;;3.22;;
79566;SDS011;69030;48.126;7.816;2024-03-06T05:29:34;4.65;;;2.92;;
79566;SDS011;69030;48.126;7.816;2024-03-06T05:32:01;5.03;;;3.95;;
79566;SDS011;69030;48.126;7.816;2024-03-06T05:34:27;4.25;;;2.63;;
79566;SDS011;69030;48.126;7.816;2024-03-06T05:36:52;6.95;;;4.32;;
79566;SDS011;69030;48.126;7.816;2024-03-06T05:39:18;4.45;;;3.20;;
79566;SDS011;69030;48.126;7.816;2024-03-06T05:41:43;5.40;;;4.22;;
79566;SDS011;69030;48.126;7.816;2024-03-06T05:44:09;8.57;;;5.07;;
79566;SDS011;69030;48.126;7.816;2024-03-06T05:46:35;4.97;;;3.30;;
79566;SDS011;69030;48.126;7.816;2024-03-06T05:49:01;8.00;;;3.95;;
79566;SDS011;69030;48.126;7.816;2024-03-06T05:51:27;4.22;;;3.05;;
79566;SDS011;69030;48.126;7.816;2024-03-06T05:53:53;7.07;;;5.63;;
79566;SDS011;69030;48.126;7.816;2024-03-06T05:56:19;6.80;;;4.90;;
79566;SDS011;69030;48.126;7.816;2024-03-06T05:58:46;5.78;;;4.88;;
79566;SDS011;69030;48.126;7.816;2024-03-06T06:01:15;7.47;;;5.25;;
79566;SDS011;69030;48.126;7.816;2024-03-06T06:03:46;5.47;;;3.58;;
79566;SDS011;69030;48.126;7.816;2024-03-06T06:06:14;9.40;;;4.22;;
79566;SDS011;69030;48.126;7.816;2024-03-06T06:08:46;7.63;;;4.30;;
79566;SDS011;69030;48.126;7.816;2024-03-06T06:11:11;7.28;;;5.05;;
79566;SDS011;69030;48.126;7.816;2024-03-06T06:13:38;8.25;;;4.72;;
79566;SDS011;69030;48.126;7.816;2024-03-06T06:16:06;3.97;;;2.55;;
79566;SDS011;69030;48.126;7.816;2024-03-06T06:18:32;6.18;;;4.32;;
79566;SDS011;69030;48.126;7.816;2024-03-06T06:20:58;4.90;;;4.13;;
79566;SDS011;69030;48.126;7.816;2024-03-06T06:23:24;5.80;;;4.78;;
79566;SDS011;69030;48.126;7.816;2024-03-06T06:25:50;4.88;;;3.15;;
79566;SDS011;69030;48.126;7.816;2024-03-06T06:28:16;5.65;;;4.55;;
79566;SDS011;69030;48.126;7.816;2024-03-06T06:30:42;6.38;;;3.60;;
79566;SDS011;69030;48.126;7.816;2024-03-06T06:33:07;6.07;;;3.97;;
79566;SDS011;69030;48.126;7.816;2024-03-06T06:35:33;6.60;;;3.70;;
79566;SDS011;69030;48.126;7.816;2024-03-06T06:38:02;5.93;;;2.92;;
79566;SDS011;69030;48.126;7.816;2024-03-06T06:40:30;4.18;;;2.72;;
79566;SDS011;69030;48.126;7.816;2024-03-06T06:42:55;7.18;;;4.57;;
79566;SDS011;69030;48.126;7.816;2024-03-06T06:45:21;5.88;;;4.72;;
79566;SDS011;69030;48.126;7.816;2024-03-06T06:47:47;6.22;;;4.00;;
79566;SDS011;69030;48.126;7.816;2024-03-06T06:50:19;6.85;;;3.92;;
79566;SDS011;69030;48.126;7.816;2024-03-06T06:52:48;10.07;;;6.43;;
79566;SDS011;69030;48.126;7.816;2024-03-06T06:55:14;7.03;;;6.32;;
79566;SDS011;69030;48.126;7.816;2024-03-06T06:57:39;7.07;;;3.67;;
79566;SDS011;69030;48.126;7.816;2024-03-06T07:00:06;8.80;;;5.03;;
79566;SDS011;69030;48.126;7.816;2024-03-06T07:02:38;7.00;;;4.32;;
79566;SDS011;69030;48.126;7.816;2024-03-06T07:05:07;5.88;;;4.05;;
79566;SDS011;69030;48.126;7.816;2024-03-06T07:07:34;8.10;;;6.60;;
79566;SDS011;69030;48.126;7.816;2024-03-06T07:10:01;6.97;;;4.47;;
79566;SDS011;69030;48.126;7.816;2024-03-06T07:12:29;7.47;;;6.47;;
79566;SDS011;69030;48.126;7.816;2024-03-06T07:14:56;8.32;;;6.13;;
79566;SDS011;69030;48.126;7.816;2024-03-06T07:17:22;7.70;;;6.45;;
79566;SDS011;69030;48.126;7.816;2024-03-06T07:19:47;7.55;;;4.95;;
79566;SDS011;69030;48.126;7.816;2024-03-06T07:22:13;9.65;;;5.72;;
79566;SDS011;69030;48.126;7.816;2024-03-06T07:24:39;9.68;;;6.20;;
79566;SDS011;69030;48.126;7.816;2024-03-06T07:27:08;7.55;;;5.13;;
79566;SDS011;69030;48.126;7.816;2024-03-06T07:29:34;12.90;;;10.13;;
79566;SDS011;69030;48.126;7.816;2024-03-06T07:32:01;13.18;;;7.35;;
79566;SDS011;69030;48.126;7.816;2024-03-06T07:34:27;24.45;;;14.18;;
79566;SDS011;69030;48.126;7.816;2024-03-06T07:36:53;19.60;;;11.15;;
79566;SDS011;69030;48.126;7.816;2024-03-06T07:39:19;10.95;;;6.57;;
79566;SDS011;69030;48.126;7.816;2024-03-06T07:41:45;12.32;;;6.47;;
79566;SDS011;69030;48.126;7.816;2024-03-06T07:44:11;8.18;;;7.35;;
79566;SDS011;69030;48.126;7.816;2024-03-06T07:46:37;10.68;;;7.53;;
79566;SDS011;69030;48.126;7.816;2024-03-06T07:49:04;13.57;;;8.43;;
79566;SDS011;69030;48.126;7.816;2024-03-06T07:51:30;13.10;;;9.00;;
79566;SDS011;69030;48.126;7.816;2024-03-06T07:53:57;7.60;;;5.75;;
79566;SDS011;69030;48.126;7.816;2024-03-06T07:56:23;6.65;;;4.70;;
79566;SDS011;69030;48.126;7.816;2024-03-06T07:58:49;6.15;;;3.45;;
79566;SDS011;69030;48.126;7.816;2024-03-06T08:01:15;11.55;;;6.18;;
79566;SDS011;69030;48.126;7.816;2024-03-06T08:03:41;6.60;;;3.63;;
79566;SDS011;69030;48.126;7.816;2024-03-06T08:06:08;10.02;;;5.65;;
79566;SDS011;69030;48.126;7.816;2024-03-06T08:08:34;9.35;;;6.90;;
79566;SDS011;69030;48.126;7.816;2024-03-06T08:11:01;15.73;;;8.48;;
79566;SDS011;69030;48.126;7.816;2024-03-06T08:13:27;11.18;;;5.45;;
79566;SDS011;69030;48.126;7.816;2024-03-06T08:15:53;6.60;;;4.55;;
79566;SDS011;69030;48.126;7.816;2024-03-06T08:18:18;5.47;;;4.47;;
79566;SDS011;69030;48.126;7.816;2024-03-06T08:20:44;4.53;;;2.55;;
79566;SDS011;69030;48.126;7.816;2024-03-06T08:23:10;9.95;;;5.07;;
79566;SDS011;69030;48.126;7.816;2024-03-06T08:25:38;4.18;;;3.55;;
79566;SDS011;69030;48.126;7.816;2024-03-06T08:28:03;3.65;;;2.05;;
79566;SDS011;69030;48.126;7.816;2024-03-06T08:30:30;4.28;;;1.95;;
79566;SDS011;69030;48.126;7.816;2024-03-06T08:32:55;4.38;;;3.97;;
79566;SDS011;69030;48.126;7.816;2024-03-06T08:35:21;4.18;;;2.45;;
79566;SDS011;69030;48.126;7.816;2024-03-06T08:37:48;4.70;;;4.30;;
79566;SDS011;69030;48.126;7.816;2024-03-06T08:40:15;2.70;;;1.75;;
79566;SDS011;69030;48.126;7.816;2024-03-06T08:42:45;10.05;;;5.13;;
79566;SDS011;69030;48.126;7.816;2024-03-06T08:45:15;6.18;;;3.70;;
79566;SDS011;69030;48.126;7.816;2024-03-06T08:47:41;7.75;;;3.75;;
79566;SDS011;69030;48.126;7.816;2024-03-06T08:50:09;5.03;;;2.90;;
79566;SDS011;69030;48.126;7.816;2024-03-06T08:52:35;4.18;;;3.50;;
79566;SDS011;69030;48.126;7.816;2024-03-06T08:55:01;6.18;;;3.13;;
79566;SDS011;69030;48.126;7.816;2024-03-06T08:57:31;6.55;;;4.68;;
79566;SDS011;69030;48.126;7.816;2024-03-06T08:59:58;8.13;;;5.07;;
79566;SDS011;69030;48.126;7.816;2024-03-06T09:02:24;9.55;;;6.57;;
79566;SDS011;69030;48.126;7.816;2024-03-06T09:04:50;5.88;;;2.33;;
79566;SDS011;69030;48.126;7.816;2024-03-06T09:07:18;5.55;;;3.13;;
79566;SDS011;69030;48.126;7.816;2024-03-06T09:09:44;3.55;;;2.40;;
79566;SDS011;69030;48.126;7.816;2024-03-06T09:12:10;3.15;;;1.70;;
79566;SDS011;69030;48.126;7.816;2024-03-06T09:14:36;4.07;;;2.13;;
79566;SDS011;69030;48.126;7.816;2024-03-06T09:17:03;4.43;;;2.42;;
79566;SDS011;69030;48.126;7.816;2024-03-06T09:19:30;6.95;;;4.32;;
79566;SDS011;69030;48.126;7.816;2024-03-06T09:21:55;6.30;;;2.88;;
79566;SDS011;69030;48.126;7.816;2024-03-06T09:24:21;2.95;;;1.55;;
79566;SDS011;69030;48.126;7.816;2024-03-06T09:26:48;3.15;;;2.58;;
79566;SDS011;69030;48.126;7.816;2024-03-06T09:29:15;3.88;;;2.72;;
79566;SDS011;69030;48.126;7.816;2024-03-06T09:31:44;4.72;;;2.45;;
79566;SDS011;69030;48.126;7.816;2024-03-06T09:34:10;3.83;;;2.47;;
79566;SDS011;69030;48.126;7.816;2024-03-06T09:36:45;3.50;;;2.35;;
79566;SDS011;69030;48.126;7.816;2024-03-06T09:39:18;4.47;;;3.55;;
79566;SDS011;69030;48.126;7.816;2024-03-06T09:44:11;5.68;;;4.07;;
79566;SDS011;69030;48.126;7.816;2024-03-06T09:46:41;3.42;;;1.80;;
79566;SDS011;69030;48.126;7.816;2024-03-06T09:49:09;4.88;;;4.47;;
79566;SDS011;69030;48.126;7.816;2024-03-06T09:51:35;4.47;;;3.47;;
79566;SDS011;69030;48.126;7.816;2024-03-06T09:54:03;2.47;;;1.27;;
79566;SDS011;69030;48.126;7.816;2024-03-06T09:56:30;3.13;;;1.67;;
79566;SDS011;69030;48.126;7.816;2024-03-06T09:58:57;6.22;;;3.63;;
79566;SDS011;69030;48.126;7.816;2024-03-06T10:01:22;4.50;;;4.10;;
79566;SDS011;69030;48.126;7.816;2024-03-06T10:03:49;2.50;;;2.30;;
79566;SDS011;69030;48.126;7.816;2024-03-06T10:06:15;2.60;;;1.63;;
79566;SDS011;69030;48.126;7.816;2024-03-06T10:08:41;3.38;;;3.08;;
79566;SDS011;69030;48.126;7.816;2024-03-06T10:11:09;4.15;;;3.80;;
79566;SDS011;69030;48.126;7.816;2024-03-06T10:13:35;5.47;;;2.60;;
79566;SDS011;69030;48.126;7.816;2024-03-06T10:16:02;7.65;;;1.33;;
79566;SDS011;69030;48.126;7.816;2024-03-06T10:18:30;3.20;;;1.10;;
79566;SDS011;69030;48.126;7.816;2024-03-06T10:20:57;2.53;;;2.20;;
79566;SDS011;69030;48.126;7.816;2024-03-06T10:23:23;3.17;;;0.93;;
79566;SDS011;69030;48.126;7.816;2024-03-06T10:25:49;2.63;;;0.85;;
79566;SDS011;69030;48.126;7.816;2024-03-06T10:28:17;3.03;;;1.13;;
79566;SDS011;69030;48.126;7.816;2024-03-06T10:30:44;1.95;;;0.85;;
79566;SDS011;69030;48.126;7.816;2024-03-06T10:33:11;2.60;;;1.20;;
79566;SDS011;69030;48.126;7.816;2024-03-06T10:35:37;2.72;;;2.05;;
79566;SDS011;69030;48.126;7.816;2024-03-06T10:38:06;4.28;;;1.55;;
79566;SDS011;69030;48.126;7.816;2024-03-06T10:40:36;3.42;;;1.05;;
79566;SDS011;69030;48.126;7.816;2024-03-06T10:43:03;5.18;;;1.90;;
79566;SDS011;69030;48.126;7.816;2024-03-06T10:45:46;2.65;;;2.13;;
79566;SDS011;69030;48.126;7.816;2024-03-06T10:48:13;3.50;;;0.93;;
79566;SDS011;69030;48.126;7.816;2024-03-06T10:50:39;2.15;;;0.95;;
79566;SDS011;69030;48.126;7.816;2024-03-06T10:53:18;2.05;;;0.93;;
79566;SDS011;69030;48.126;7.816;2024-03-06T10:55:44;3.88;;;2.00;;
79566;SDS011;69030;48.126;7.816;2024-03-06T10:58:11;3.63;;;1.88;;
79566;SDS011;69030;48.126;7.816;2024-03-06T11:00:37;4.22;;;1.33;;
79566;SDS011;69030;48.126;7.816;2024-03-06T11:03:07;2.17;;;0.95;;
79566;SDS011;69030;48.126;7.816;2024-03-06T11:05:37;11.65;;;1.13;;
79566;SDS011;69030;48.126;7.816;2024-03-06T11:10:33;2.25;;;1.02;;
79566;SDS011;69030;48.126;7.816;2024-03-06T11:12:59;2.30;;;1.92;;
79566;SDS011;69030;48.126;7.816;2024-03-06T11:15:26;1.58;;;0.75;;
79566;SDS011;69030;48.126;7.816;2024-03-06T11:17:52;1.60;;;0.50;;
79566;SDS011;69030;48.126;7.816;2024-03-06T11:20:20;3.03;;;2.53;;
79566;SDS011;69030;48.126;7.816;2024-03-06T11:28:34;2.58;;;1.35;;
79566;SDS011;69030;48.126;7.816;2024-03-06T11:33:34;1.73;;;1.63;;
79566;SDS011;69030;48.126;7.816;2024-03-06T11:38:52;1.17;;;0.77;;
79566;SDS011;69030;48.126;7.816;2024-03-06T11:41:22;1.40;;;0.47;;
79566;SDS011;69030;48.126;7.816;2024-03-06T11:43:50;1.60;;;1.33;;
79566;SDS011;69030;48.126;7.816;2024-03-06T11:46:21;3.53;;;1.70;;
79566;SDS011;69030;48.126;7.816;2024-03-06T11:48:54;3.95;;;1.60;;
79566;SDS011;69030;48.126;7.816;2024-03-06T11:51:21;3.97;;;1.35;;
79566;SDS011;69030;48.126;7.816;2024-03-06T11:53:51;2.45;;;0.75;;
79566;SDS011;69030;48.126;7.816;2024-03-06T11:56:17;4.60;;;1.02;;
79566;SDS011;69030;48.126;7.816;2024-03-06T11:58:44;2.13;;;1.00;;
79566;SDS011;69030;48.126;7.816;2024-03-06T12:01:10;5.28;;;1.05;;
79566;SDS011;69030;48.126;7.816;2024-03-06T12:03:36;1.95;;;0.70;;
79566;SDS011;69030;48.126;7.816;2024-03-06T12:06:02;1.42;;;0.50;;
79566;SDS011;69030;48.126;7.816;2024-03-06T12:08:28;2.28;;;1.90;;
79566;SDS011;69030;48.126;7.816;2024-03-06T12:10:53;1.42;;;0.65;;
79566;SDS011;69030;48.126;7.816;2024-03-06T12:13:23;1.45;;;1.35;;
79566;SDS011;69030;48.126;7.816;2024-03-06T12:15:50;2.13;;;0.50;;
79566;SDS011;69030;48.126;7.816;2024-03-06T12:18:17;1.80;;;0.68;;
79566;SDS011;69030;48.126;7.816;2024-03-06T12:20:43;4.57;;;2.70;;
79566;SDS011;69030;48.126;7.816;2024-03-06T12:23:20;1.77;;;1.67;;
79566;SDS011;69030;48.126;7.816;2024-03-06T12:26:01;3.03;;;0.55;;
79566;SDS011;69030;48.126;7.816;2024-03-06T12:28:30;0.90;;;0.55;;
79566;SDS011;69030;48.126;7.816;2024-03-06T12:30:56;2.42;;;1.13;;
79566;SDS011;69030;48.126;7.816;2024-03-06T12:33:26;1.58;;;0.80;;
79566;SDS011;69030;48.126;7.816;2024-03-06T12:38:30;5.57;;;2.05;;
79566;SDS011;69030;48.126;7.816;2024-03-06T12:40:56;3.65;;;1.55;;
79566;SDS011;69030;48.126;7.816;2024-03-06T12:43:21;3.05;;;2.85;;
79566;SDS011;69030;48.126;7.816;2024-03-06T12:45:47;1.73;;;0.93;;
79566;SDS011;69030;48.126;7.816;2024-03-06T12:48:13;4.53;;;2.42;;
79566;SDS011;69030;48.126;7.816;2024-03-06T12:50:39;3.45;;;1.33;;
79566;SDS011;69030;48.126;7.816;2024-03-06T12:53:05;2.97;;;2.63;;
79566;SDS011;69030;48.126;7.816;2024-03-06T12:55:31;4.53;;;2.13;;
79566;SDS011;69030;48.126;7.816;2024-03-06T12:57:57;2.25;;;1.80;;
79566;SDS011;69030;48.126;7.816;2024-03-06T13:00:23;4.57;;;0.98;;
79566;SDS011;69030;48.126;7.816;2024-03-06T13:02:49;1.70;;;1.60;;
79566;SDS011;69030;48.126;7.816;2024-03-06T13:05:16;1.40;;;1.08;;
79566;SDS011;69030;48.126;7.816;2024-03-06T13:07:44;2.97;;;2.22;;
79566;SDS011;69030;48.126;7.816;2024-03-06T13:10:10;2.95;;;2.58;;
79566;SDS011;69030;48.126;7.816;2024-03-06T13:12:36;1.13;;;0.80;;
79566;SDS011;69030;48.126;7.816;2024-03-06T13:15:03;4.38;;;1.75;;
79566;SDS011;69030;48.126;7.816;2024-03-06T13:17:30;1.77;;;1.48;;
79566;SDS011;69030;48.126;7.816;2024-03-06T13:19:56;1.23;;;1.13;;
79566;SDS011;69030;48.126;7.816;2024-03-06T13:22:22;1.58;;;1.02;;
79566;SDS011;69030;48.126;7.816;2024-03-06T13:24:48;1.38;;;1.27;;
79566;SDS011;69030;48.126;7.816;2024-03-06T13:27:14;1.00;;;1.00;;
79566;SDS011;69030;48.126;7.816;2024-03-06T13:29:40;5.10;;;2.50;;
79566;SDS011;69030;48.126;7.816;2024-03-06T13:32:06;5.45;;;2.20;;
79566;SDS011;69030;48.126;7.816;2024-03-06T13:34:32;2.15;;;1.05;;
79566;SDS011;69030;48.126;7.816;2024-03-06T13:36:59;3.92;;;2.83;;
79566;SDS011;69030;48.126;7.816;2024-03-06T13:39:26;5.57;;;2.90;;
79566;SDS011;69030;48.126;7.816;2024-03-06T13:41:52;2.20;;;2.00;;
79566;SDS011;69030;48.126;7.816;2024-03-06T13:44:18;2.45;;;0.80;;
79566;SDS011;69030;48.126;7.816;2024-03-06T13:46:43;3.45;;;2.15;;
79566;SDS011;69030;48.126;7.816;2024-03-06T13:49:33;3.15;;;2.22;;
79566;SDS011;69030;48.126;7.816;2024-03-06T13:52:00;3.88;;;1.60;;
79566;SDS011;69030;48.126;7.816;2024-03-06T13:54:26;6.00;;;2.67;;
79566;SDS011;69030;48.126;7.816;2024-03-06T13:56:54;3.20;;;2.47;;
79566;SDS011;69030;48.126;7.816;2024-03-06T13:59:26;4.90;;;3.25;;
79566;SDS011;69030;48.126;7.816;2024-03-06T14:01:56;3.25;;;1.63;;
79566;SDS011;69030;48.126;7.816;2024-03-06T14:04:22;5.18;;;2.40;;
79566;SDS011;69030;48.126;7.816;2024-03-06T14:06:47;5.72;;;0.75;;
79566;SDS011;69030;48.126;7.816;2024-03-06T14:09:14;1.27;;;0.98;;
79566;SDS011;69030;48.126;7.816;2024-03-06T14:11:39;2.22;;;1.20;;
79566;SDS011;69030;48.126;7.816;2024-03-06T14:14:05;4.60;;;4.30;;
79566;SDS011;69030;48.126;7.816;2024-03-06T14:16:36;3.72;;;2.78;;
79566;SDS011;69030;48.126;7.816;2024-03-06T14:19:02;3.00;;;2.50;;
79566;SDS011;69030;48.126;7.816;2024-03-06T14:21:29;4.00;;;3.15;;
79566;SDS011;69030;48.126;7.816;2024-03-06T14:23:57;4.78;;;3.42;;
79566;SDS011;69030;48.126;7.816;2024-03-06T14:26:28;2.22;;;1.92;;
79566;SDS011;69030;48.126;7.816;2024-03-06T14:28:58;5.53;;;2.58;;
79566;SDS011;69030;48.126;7.816;2024-03-06T14:31:24;3.78;;;3.33;;
79566;SDS011;69030;48.126;7.816;2024-03-06T14:33:49;2.95;;;2.15;;
79566;SDS011;69030;48.126;7.816;2024-03-06T14:36:16;3.83;;;1.08;;
79566;SDS011;69030;48.126;7.816;2024-03-06T14:38:42;2.13;;;1.92;;
79566;SDS011;69030;48.126;7.816;2024-03-06T14:41:10;2.83;;;1.02;;
79566;SDS011;69030;48.126;7.816;2024-03-06T14:43:35;4.85;;;1.50;;
79566;SDS011;69030;48.126;7.816;2024-03-06T14:46:07;4.38;;;3.53;;
79566;SDS011;69030;48.126;7.816;2024-03-06T14:48:34;3.22;;;1.80;;
79566;SDS011;69030;48.126;7.816;2024-03-06T14:51:00;2.72;;;1.92;;
79566;SDS011;69030;48.126;7.816;2024-03-06T14:53:26;3.33;;;1.73;;
79566;SDS011;69030;48.126;7.816;2024-03-06T14:55:52;3.95;;;3.03;;
79566;SDS011;69030;48.126;7.816;2024-03-06T14:58:18;2.55;;;2.35;;
79566;SDS011;69030;48.126;7.816;2024-03-06T15:00:44;1.83;;;1.20;;
79566;SDS011;69030;48.126;7.816;2024-03-06T15:03:10;3.60;;;1.30;;
79566;SDS011;69030;48.126;7.816;2024-03-06T15:05:35;2.72;;;0.73;;